Time;durP1;ratioP1;P1;durP2;ratioP2;P2;SDS_P1;SDS_P2;PMS_P1;PMS_P2;Temp;Humidity;BMP_temperature;BMP_pressure;BME280_temperature;BME280_humidity;BME280_pressure;Samples;Min_cycle;Max_cycle;Signal;HPM_P1;HPM_P2
2022/01/04 00:03:40;;;;;;;14.50;4.72;;;;;;;6.78;84.88;98229.97;8471110;27;20383;-71
2022/01/04 00:07:41;;;;;;;20.73;6.47;;;;;;;6.77;85.28;98233.75;8474627;27;20126;-71
2022/01/04 00:15:55;;;;;;;14.32;4.72;;;;;;;6.60;86.43;98236.31;8470292;27;20127;-72
2022/01/04 00:19:57;;;;;;;19.35;4.78;;;;;;;6.62;86.73;98232.22;8465429;27;20046;-71
2022/01/04 00:23:58;;;;;;;16.70;5.40;;;;;;;6.71;86.77;98235.00;8479616;27;20040;-72
2022/01/04 00:28:00;;;;;;;12.18;4.53;;;;;;;6.56;87.33;98228.06;8478677;27;20050;-71
2022/01/04 00:32:01;;;;;;;14.73;4.35;;;;;;;6.51;87.50;98203.25;8469434;27;20058;-73
2022/01/04 00:36:02;;;;;;;12.40;4.45;;;;;;;6.45;88.69;98205.25;8478934;27;20136;-71
2022/01/04 00:40:03;;;;;;;9.10;3.78;;;;;;;6.54;88.71;98202.66;8463636;27;20131;-71
2022/01/04 00:44:05;;;;;;;16.60;4.07;;;;;;;6.56;88.79;98189.72;8429019;27;20055;-72
2022/01/04 00:52:14;;;;;;;12.45;4.43;;;;;;;6.52;88.92;98175.34;8473905;27;20054;-72
2022/01/04 00:56:15;;;;;;;10.77;4.00;;;;;;;6.58;88.86;98182.16;8463162;27;20054;-72
2022/01/04 01:00:17;;;;;;;13.30;4.57;;;;;;;6.48;89.27;98177.03;8478029;27;20050;-73
2022/01/04 01:04:18;;;;;;;16.52;4.78;;;;;;;6.44;89.52;98176.06;8478641;28;20387;-72
2022/01/04 01:08:19;;;;;;;15.40;6.15;;;;;;;6.42;89.61;98172.91;8471148;28;20044;-72
2022/01/04 01:12:19;;;;;;;14.85;5.13;;;;;;;6.36;90.32;98170.34;8431215;28;20134;-71
2022/01/04 01:16:20;;;;;;;11.63;4.30;;;;;;;6.34;90.33;98167.16;8478213;28;20070;-72
2022/01/04 01:20:21;;;;;;;9.50;3.72;;;;;;;6.41;90.00;98160.56;8469683;28;20143;-72
2022/01/04 01:24:22;;;;;;;7.80;3.63;;;;;;;6.32;90.46;98158.63;8452447;28;20497;-72
2022/01/04 01:28:23;;;;;;;10.13;3.72;;;;;;;6.32;90.55;98142.53;8465035;28;20169;-72
2022/01/04 01:32:24;;;;;;;9.93;3.88;;;;;;;6.43;89.69;98136.94;8456664;28;20046;-72
2022/01/04 01:36:26;;;;;;;12.18;3.70;;;;;;;6.38;89.84;98139.75;8471067;28;20043;-72
2022/01/04 01:40:27;;;;;;;12.50;3.70;;;;;;;6.35;89.56;98125.84;8485095;28;20402;-73
2022/01/04 01:44:29;;;;;;;8.27;3.42;;;;;;;6.31;89.72;98130.22;8476406;27;20050;-72
2022/01/04 01:48:30;;;;;;;10.43;3.10;;;;;;;6.26;90.24;98122.31;8450085;27;20448;-72
2022/01/04 01:52:31;;;;;;;8.55;3.55;;;;;;;6.29;90.05;98121.69;8471381;27;20123;-72
2022/01/04 01:56:32;;;;;;;10.40;3.25;;;;;;;6.40;89.52;98110.75;8486082;27;20051;-72
2022/01/04 02:00:33;;;;;;;6.47;3.03;;;;;;;6.42;89.19;98108.53;8478002;27;20039;-72
2022/01/04 02:04:33;;;;;;;8.43;3.22;;;;;;;6.50;88.68;98100.56;8477427;27;20046;-72
2022/01/04 02:08:35;;;;;;;8.65;2.47;;;;;;;6.53;88.04;98093.78;8482861;27;20078;-71
2022/01/04 02:12:44;;;;;;;5.40;2.30;;;;;;;6.58;87.40;98090.97;8466386;28;20518;-72
2022/01/04 02:16:44;;;;;;;4.57;2.00;;;;;;;6.60;86.83;98094.16;8469881;27;20467;-72
2022/01/04 02:20:45;;;;;;;5.25;1.95;;;;;;;6.54;86.67;98081.94;8481832;27;20047;-73
2022/01/04 02:24:46;;;;;;;4.20;1.77;;;;;;;6.50;86.59;98078.31;8473166;27;20558;-72
2022/01/04 02:28:47;;;;;;;4.25;1.75;;;;;;;6.56;85.68;98066.31;8490463;27;20039;-73
2022/01/04 02:32:48;;;;;;;3.90;1.63;;;;;;;6.53;86.03;98061.59;8471334;27;20047;-72
2022/01/04 02:36:49;;;;;;;4.20;1.98;;;;;;;6.46;86.37;98066.59;8488804;27;20048;-72
2022/01/04 02:40:50;;;;;;;2.70;1.42;;;;;;;6.50;85.93;98051.50;8489438;27;20136;-72
2022/01/04 02:44:51;;;;;;;4.07;1.70;;;;;;;6.52;85.71;98054.63;8481978;27;20512;-72
2022/01/04 02:48:52;;;;;;;4.45;1.70;;;;;;;6.58;85.29;98048.84;8465608;27;20096;-72
2022/01/04 02:52:53;;;;;;;2.70;1.10;;;;;;;6.55;85.18;98043.31;8472415;27;20062;-72
2022/01/04 02:56:53;;;;;;;6.60;1.40;;;;;;;6.59;85.18;98036.22;8480146;27;20502;-72
2022/01/04 03:00:54;;;;;;;3.28;1.20;;;;;;;6.60;84.80;98035.91;8481402;27;20067;-72
2022/01/04 03:04:55;;;;;;;2.72;1.30;;;;;;;6.58;84.93;98031.94;8481969;27;20498;-72
2022/01/04 03:08:56;;;;;;;3.90;1.38;;;;;;;6.51;85.61;98027.03;8481915;27;20058;-73
2022/01/04 03:12:57;;;;;;;3.25;1.38;;;;;;;6.48;85.75;98019.59;8420934;27;20043;-71
2022/01/04 03:16:58;;;;;;;5.15;1.83;;;;;;;6.48;85.90;98010.75;8471908;27;20055;-73
2022/01/04 03:20:58;;;;;;;3.28;1.90;;;;;;;6.42;86.51;98001.25;8496899;27;20035;-71
2022/01/04 03:24:59;;;;;;;8.73;3.03;;;;;;;6.32;87.25;97992.38;8472033;27;20043;-72
2022/01/04 03:29:00;;;;;;;7.38;2.75;;;;;;;6.32;87.53;97997.75;8472104;27;20063;-73
2022/01/04 03:33:01;;;;;;;9.63;2.95;;;;;;;6.27;87.93;97995.19;8471572;27;20104;-72
2022/01/04 03:37:02;;;;;;;8.85;3.83;;;;;;;6.22;88.37;97976.56;8487947;27;20047;-73
2022/01/04 03:41:07;;;;;;;8.48;3.53;;;;;;;6.18;88.83;97980.16;8472765;27;20075;-72
2022/01/04 03:45:08;;;;;;;8.73;2.72;;;;;;;6.19;88.65;97977.16;8479962;27;20100;-72
2022/01/04 03:49:09;;;;;;;7.00;2.60;;;;;;;6.14;88.96;97966.56;8479928;27;20042;-73
2022/01/04 03:53:10;;;;;;;8.63;3.60;;;;;;;6.04;90.00;97958.78;8493482;27;20505;-73
2022/01/04 03:57:11;;;;;;;5.75;2.90;;;;;;;6.02;90.47;97954.84;8479643;27;20047;-73
2022/01/04 04:01:12;;;;;;;6.60;2.47;;;;;;;5.92;91.06;97937.13;8480279;27;20126;-73
2022/01/04 04:05:13;;;;;;;8.70;3.35;;;;;;;5.91;91.32;97932.88;8425035;27;20051;-73
2022/01/04 04:09:13;;;;;;;5.65;2.78;;;;;;;5.91;91.04;97935.56;8464797;27;20113;-73
2022/01/04 04:13:14;;;;;;;8.65;2.78;;;;;;;5.86;90.92;97930.28;8426483;27;20067;-73
2022/01/04 04:17:15;;;;;;;4.80;2.13;;;;;;;5.80;90.87;97920.78;8463247;27;20127;-73
2022/01/04 04:21:16;;;;;;;8.75;2.38;;;;;;;5.71;91.11;97923.41;8464284;27;20418;-72
2022/01/04 04:25:17;;;;;;;4.30;2.05;;;;;;;5.62;91.50;97919.09;8470373;27;20460;-72
2022/01/04 04:29:18;;;;;;;7.32;2.85;;;;;;;5.59;91.83;97914.34;8471742;27;20036;-72
2022/01/04 04:33:19;;;;;;;4.80;2.30;;;;;;;5.61;91.89;97901.44;8462197;28;20039;-71
2022/01/04 04:37:19;;;;;;;5.72;2.30;;;;;;;5.63;91.85;97899.25;8452357;27;20066;-72
2022/01/04 04:41:20;;;;;;;7.13;2.67;;;;;;;5.62;92.04;97886.94;8462174;28;20075;-72
2022/01/04 04:45:21;;;;;;;6.50;2.80;;;;;;;5.68;91.73;97893.75;8483600;27;20035;-73
2022/01/04 04:49:22;;;;;;;5.70;2.30;;;;;;;5.70;91.59;97896.94;8464200;27;20122;-72
2022/01/04 04:53:23;;;;;;;3.45;2.00;;;;;;;5.75;91.77;97891.47;8463130;27;20487;-73
2022/01/04 04:57:23;;;;;;;5.88;2.83;;;;;;;5.77;91.99;97883.88;8473960;27;20055;-72
2022/01/04 05:01:25;;;;;;;7.97;3.50;;;;;;;5.78;92.00;97885.47;8461975;28;20506;-72
2022/01/04 05:05:25;;;;;;;5.78;2.13;;;;;;;5.74;92.27;97889.88;8491915;28;20051;-72
2022/01/04 05:09:26;;;;;;;4.82;1.80;;;;;;;5.68;92.85;97891.09;8456229;28;20044;-71
2022/01/04 05:13:27;;;;;;;4.75;1.63;;;;;;;5.74;92.57;97884.50;8464870;28;20090;-73
2022/01/04 05:17:28;;;;;;;5.05;1.88;;;;;;;5.71;92.86;97872.50;8479076;27;20498;-72
2022/01/04 05:21:28;;;;;;;6.15;2.70;;;;;;;5.69;93.39;97871.25;8468386;27;20047;-72
2022/01/04 05:25:29;;;;;;;4.85;2.30;;;;;;;5.67;93.85;97868.06;8484605;27;20278;-72
2022/01/04 05:29:30;;;;;;;5.10;2.00;;;;;;;5.73;93.27;97856.94;8453956;27;20047;-72
2022/01/04 05:33:31;;;;;;;4.32;1.92;;;;;;;5.69;93.49;97855.19;8496301;27;20039;-70
2022/01/04 05:37:31;;;;;;;6.70;2.30;;;;;;;5.71;93.47;97855.66;8437536;27;20073;-72
2022/01/04 05:41:33;;;;;;;6.15;2.78;;;;;;;5.75;93.25;97848.59;8494810;27;20036;-71
2022/01/04 05:45:34;;;;;;;7.53;3.40;;;;;;;5.77;93.20;97836.47;8491792;27;20417;-71
2022/01/04 05:49:35;;;;;;;13.63;6.03;;;;;;;5.74;93.97;97830.94;8491960;27;20043;-72
2022/01/04 05:53:35;;;;;;;8.95;3.90;;;;;;;5.69;94.13;97813.13;8488082;27;20153;-72
2022/01/04 05:57:36;;;;;;;7.00;3.10;;;;;;;5.68;94.47;97816.09;8492826;27;20067;-72
2022/01/04 06:01:37;;;;;;;6.80;3.25;;;;;;;5.63;94.93;97813.53;8488134;27;20039;-72
2022/01/04 06:05:38;;;;;;;8.05;4.13;;;;;;;5.66;95.05;97812.94;8490645;27;20052;-72
2022/01/04 06:09:42;;;;;;;10.15;4.25;;;;;;;5.63;95.00;97803.63;8452637;27;20074;-72
2022/01/04 06:18:02;;;;;;;8.68;3.63;;;;;;;5.58;95.76;97800.28;8486257;27;20048;-72
2022/01/04 06:22:03;;;;;;;6.18;3.72;;;;;;;5.56;96.18;97786.41;8479577;27;20062;-72
2022/01/04 06:26:05;;;;;;;7.10;3.55;;;;;;;5.50;96.57;97783.84;8429989;27;20044;-72
2022/01/04 06:30:06;;;;;;;9.75;4.35;;;;;;;5.49;97.00;97779.63;8473137;27;20079;-72
2022/01/04 06:34:07;;;;;;;8.07;4.82;;;;;;;5.51;97.19;97785.44;8471587;27;20051;-72
2022/01/04 06:38:08;;;;;;;7.80;4.20;;;;;;;5.55;97.24;97779.50;8476010;27;20083;-72
2022/01/04 06:42:10;;;;;;;8.80;4.82;;;;;;;5.56;97.21;97775.69;8480241;27;20039;-72
2022/01/04 06:46:13;;;;;;;10.48;4.95;;;;;;;5.53;97.34;97772.56;8467272;27;20513;-73
2022/01/04 06:50:15;;;;;;;13.25;4.30;;;;;;;5.58;97.58;97762.78;8484466;27;20514;-72
2022/01/04 06:54:18;;;;;;;9.60;5.35;;;;;;;5.51;98.38;97769.38;8481695;27;20047;-72
2022/01/04 06:58:19;;;;;;;12.60;5.72;;;;;;;5.53;98.42;97761.03;8480986;27;20051;-72
2022/01/04 07:02:20;;;;;;;10.93;5.50;;;;;;;5.48;99.46;97767.31;8493673;27;20090;-72
2022/01/04 07:06:21;;;;;;;13.20;5.40;;;;;;;5.45;100.00;97754.53;8488073;27;20046;-73
2022/01/04 07:10:22;;;;;;;13.48;6.18;;;;;;;5.44;100.00;97741.47;8481092;27;20276;-72
2022/01/04 07:14:23;;;;;;;12.57;5.80;;;;;;;5.44;100.00;97744.94;8477778;27;20061;-72
2022/01/04 07:18:24;;;;;;;12.98;6.70;;;;;;;5.39;100.00;97745.06;8481077;27;20043;-72
2022/01/04 07:22:25;;;;;;;19.95;7.10;;;;;;;5.39;100.00;97731.66;8483640;27;20075;-73
2022/01/04 07:26:27;;;;;;;14.80;7.25;;;;;;;5.39;100.00;97723.63;8479193;27;20047;-72
2022/01/04 07:30:28;;;;;;;14.70;6.72;;;;;;;5.41;100.00;97721.44;8426791;28;20138;-72
2022/01/04 07:34:28;;;;;;;12.00;7.55;;;;;;;5.42;100.00;97706.97;8473560;27;20100;-72
2022/01/04 07:38:29;;;;;;;12.82;6.60;;;;;;;5.46;100.00;97702.56;8480483;27;20042;-72
2022/01/04 07:42:30;;;;;;;13.82;7.85;;;;;;;5.50;100.00;97692.81;8473757;27;20494;-72
2022/01/04 07:46:31;;;;;;;20.35;8.32;;;;;;;5.49;100.00;97675.19;8436159;27;20126;-72
2022/01/04 07:50:32;;;;;;;18.27;9.18;;;;;;;5.49;100.00;97669.84;8448292;28;20051;-71
2022/01/04 07:54:32;;;;;;;18.45;10.50;;;;;;;5.51;100.00;97656.13;8472740;27;20124;-72
2022/01/04 07:58:33;;;;;;;22.38;10.65;;;;;;;5.47;100.00;97655.97;8464855;28;20054;-72
2022/01/04 08:02:34;;;;;;;28.98;12.73;;;;;;;5.50;100.00;97643.81;8489277;27;20402;-71
2022/01/04 08:06:35;;;;;;;26.33;13.73;;;;;;;5.53;100.00;97633.31;8489445;27;20043;-72
2022/01/04 08:10:36;;;;;;;29.35;14.60;;;;;;;5.57;100.00;97611.25;8464530;27;20067;-72
2022/01/04 08:14:37;;;;;;;24.95;13.93;;;;;;;5.57;100.00;97595.19;8464184;28;20035;-71
2022/01/04 08:18:37;;;;;;;23.45;12.63;;;;;;;5.59;100.00;97587.63;8463826;28;20063;-72
2022/01/04 08:22:38;;;;;;;23.05;11.70;;;;;;;5.58;100.00;97586.06;8427789;27;20050;-72
2022/01/04 08:26:39;;;;;;;24.30;14.05;;;;;;;5.55;100.00;97581.34;8471805;27;20093;-71
2022/01/04 08:30:42;;;;;;;26.55;14.90;;;;;;;5.61;100.00;97580.06;8472935;27;20055;-71
2022/01/04 08:34:42;;;;;;;31.60;16.50;;;;;;;5.63;100.00;97575.19;8462427;27;20055;-71
2022/01/04 08:38:43;;;;;;;35.15;15.77;;;;;;;5.73;100.00;97566.84;8462314;27;20750;-71
2022/01/04 08:42:44;;;;;;;26.35;14.32;;;;;;;5.78;100.00;97572.84;8452879;27;20040;-71
2022/01/04 08:46:45;;;;;;;29.83;15.98;;;;;;;5.81;100.00;97563.41;8483568;27;20043;-71
2022/01/04 08:50:46;;;;;;;41.25;22.45;;;;;;;5.82;100.00;97565.75;8482332;27;20138;-71
2022/01/04 08:54:47;;;;;;;42.30;22.05;;;;;;;5.83;100.00;97556.59;8474221;27;20047;-72
2022/01/04 08:58:48;;;;;;;35.78;19.60;;;;;;;5.83;100.00;97555.81;8473794;28;20078;-71
2022/01/04 09:02:49;;;;;;;34.60;18.13;;;;;;;5.85;100.00;97543.69;8477298;27;20050;-71
2022/01/04 09:06:50;;;;;;;31.55;17.05;;;;;;;5.87;100.00;97557.59;8479648;28;20495;-71
2022/01/04 09:10:51;;;;;;;33.13;15.38;;;;;;;5.89;100.00;97554.59;8420368;28;20079;-71
2022/01/04 09:14:59;;;;;;;30.33;15.55;;;;;;;5.92;100.00;97544.03;8470621;28;20711;-72
2022/01/04 09:19:00;;;;;;;32.35;16.00;;;;;;;5.98;100.00;97539.28;8464142;28;20061;-72
2022/01/04 09:23:01;;;;;;;34.15;17.88;;;;;;;6.02;100.00;97537.56;8472776;28;20440;-75
2022/01/04 09:27:05;;;;;;;34.13;17.42;;;;;;;6.09;100.00;97527.16;8470209;28;20051;-71
2022/01/04 09:31:06;;;;;;;33.72;17.25;;;;;;;6.18;100.00;97525.25;8475928;28;20051;-71
2022/01/04 09:35:08;;;;;;;42.35;20.00;;;;;;;6.23;100.00;97509.00;8480437;28;20052;-71
2022/01/04 09:39:23;;;;;;;30.95;16.65;;;;;;;6.26;100.00;97500.31;8472576;28;20040;-72
2022/01/04 09:43:25;;;;;;;37.08;19.27;;;;;;;6.29;100.00;97488.19;8465590;28;20665;-70
2022/01/04 09:47:25;;;;;;;37.95;19.52;;;;;;;6.32;100.00;97482.97;8471601;28;20044;-71
2022/01/04 09:51:27;;;;;;;38.00;19.48;;;;;;;6.36;100.00;97478.53;8468723;28;20043;-70
2022/01/04 09:55:28;;;;;;;32.10;17.77;;;;;;;6.39;100.00;97465.59;8474359;28;20040;-71
2022/01/04 09:59:29;;;;;;;33.10;18.05;;;;;;;6.43;100.00;97450.44;8484875;28;20070;-71
2022/01/04 10:03:31;;;;;;;31.83;18.38;;;;;;;6.43;100.00;97439.72;8479159;27;20039;-71
2022/01/04 10:07:32;;;;;;;34.85;19.33;;;;;;;6.51;100.00;97436.19;8474129;27;20044;-71
2022/01/04 10:11:34;;;;;;;31.48;18.40;;;;;;;6.54;100.00;97440.94;8477021;27;20071;-71
2022/01/04 10:15:47;;;;;;;33.38;18.13;;;;;;;6.54;100.00;97424.84;8480140;27;20044;-72
2022/01/04 10:19:53;;;;;;;50.25;28.38;;;;;;;6.56;100.00;97422.59;8487213;27;20453;-71
2022/01/04 10:23:56;;;;;;;41.17;23.13;;;;;;;6.56;100.00;97406.50;8475295;27;20367;-71
2022/01/04 10:27:56;;;;;;;41.03;22.98;;;;;;;6.62;100.00;97400.63;8487776;27;20562;-71
2022/01/04 10:32:08;;;;;;;40.17;23.80;;;;;;;6.61;100.00;97392.94;8476889;27;20058;-71
2022/01/04 10:36:13;;;;;;;49.00;25.10;;;;;;;6.61;100.00;97382.22;8437510;27;20050;-71
2022/01/04 10:40:15;;;;;;;35.13;18.00;;;;;;;6.68;100.00;97382.47;8481475;27;20050;-72
2022/01/04 10:44:17;;;;;;;35.83;19.80;;;;;;;6.60;100.00;97364.53;8448409;27;20043;-71
2022/01/04 10:48:29;;;;;;;35.17;19.75;;;;;;;6.61;100.00;97360.75;8489264;27;20513;-71
2022/01/04 10:52:31;;;;;;;28.77;13.98;;;;;;;6.69;100.00;97346.50;8478904;27;20062;-71
2022/01/04 10:56:34;;;;;;;33.15;14.82;;;;;;;6.75;100.00;97345.19;8472883;27;20044;-70
2022/01/04 11:00:35;;;;;;;39.25;18.70;;;;;;;6.74;100.00;97332.88;8481474;27;20044;-72
2022/01/04 11:04:39;;;;;;;22.73;13.27;;;;;;;6.72;100.00;97329.72;8480944;27;20043;-72
2022/01/04 11:08:42;;;;;;;21.65;12.82;;;;;;;6.79;100.00;97324.63;8482347;27;20066;-71
2022/01/04 11:12:42;;;;;;;22.05;13.00;;;;;;;6.85;100.00;97317.19;8479984;27;20053;-71
2022/01/04 11:16:43;;;;;;;23.73;13.50;;;;;;;6.83;100.00;97301.41;8471542;27;20043;-71
2022/01/04 11:20:45;;;;;;;39.25;20.77;;;;;;;6.92;100.00;97286.03;8489497;27;20051;-71
2022/01/04 11:24:46;;;;;;;34.33;18.02;;;;;;;7.00;100.00;97287.06;8490160;27;20084;-71
2022/01/04 11:28:48;;;;;;;28.88;14.15;;;;;;;6.94;100.00;97273.06;8463041;27;20079;-71
2022/01/04 11:32:54;;;;;;;36.03;20.52;;;;;;;7.02;100.00;97264.16;8479332;27;20486;-70
2022/01/04 11:36:56;;;;;;;34.85;20.90;;;;;;;7.12;100.00;97247.66;8383862;28;20538;-72
2022/01/04 11:40:56;;;;;;;29.05;16.83;;;;;;;7.13;100.00;97238.47;8417983;28;20089;-71
2022/01/04 11:44:58;;;;;;;24.02;12.90;;;;;;;7.17;100.00;97225.16;8393018;28;20048;-71
2022/01/04 11:49:13;;;;;;;20.45;10.57;;;;;;;7.15;100.00;97214.75;8409231;28;20495;-71
2022/01/04 11:53:14;;;;;;;20.98;11.05;;;;;;;7.15;100.00;97198.66;8407221;28;20764;-72
2022/01/04 11:57:16;;;;;;;22.70;10.90;;;;;;;7.09;100.00;97189.25;8393480;28;20067;-70
2022/01/04 12:01:27;;;;;;;21.70;12.25;;;;;;;6.99;100.00;97157.47;8398215;28;20041;-72
2022/01/04 12:05:28;;;;;;;25.60;10.82;;;;;;;6.97;100.00;97154.34;8406051;27;20104;-71
2022/01/04 12:09:29;;;;;;;22.23;11.93;;;;;;;6.91;100.00;97144.94;8470478;27;20048;-72
2022/01/04 12:14:04;;;;;;;24.05;13.05;;;;;;;6.93;100.00;97140.00;8483442;27;20051;-77
2022/01/04 12:18:09;;;;;;;20.45;12.77;;;;;;;6.95;100.00;97140.47;8309330;28;20104;-70
2022/01/04 12:22:11;;;;;;;23.30;13.95;;;;;;;6.93;100.00;97126.56;8314288;28;20076;-70
2022/01/04 12:26:16;;;;;;;28.85;14.77;;;;;;;6.92;100.00;97124.25;8322690;28;20053;-70
2022/01/04 12:30:23;;;;;;;29.95;15.73;;;;;;;6.84;100.00;97107.13;8308615;28;20057;-71
2022/01/04 12:34:36;;;;;;;23.83;13.32;;;;;;;6.84;100.00;97100.97;8321720;28;20041;-69
2022/01/04 12:38:38;;;;;;;27.80;13.52;;;;;;;6.85;100.00;97097.16;8303898;28;20055;-72
2022/01/04 12:42:42;;;;;;;25.45;13.90;;;;;;;6.82;100.00;97082.50;8315179;28;20049;-71
2022/01/04 12:46:46;;;;;;;27.50;14.55;;;;;;;6.79;100.00;97083.19;8317756;28;20092;-70
2022/01/04 12:50:47;;;;;;;29.92;15.00;;;;;;;6.75;100.00;97087.66;8292584;28;20056;-71
2022/01/04 12:54:48;;;;;;;27.27;14.02;;;;;;;6.74;100.00;97069.97;8448794;27;20524;-71
2022/01/04 12:58:49;;;;;;;30.77;15.35;;;;;;;6.75;100.00;97071.56;8425620;27;20582;-71
2022/01/04 13:02:49;;;;;;;26.27;13.82;;;;;;;6.81;100.00;97064.06;8466920;27;20040;-70
2022/01/04 13:06:51;;;;;;;25.77;13.40;;;;;;;6.81;100.00;97056.81;8486522;27;20047;-71
2022/01/04 13:11:07;;;;;;;32.00;16.58;;;;;;;6.79;100.00;97057.13;8479212;28;20509;-71
2022/01/04 13:15:12;;;;;;;33.10;16.42;;;;;;;6.85;100.00;97055.03;8468301;28;20054;-70
2022/01/04 13:19:14;;;;;;;36.72;20.48;;;;;;;6.82;100.00;97034.22;8469825;28;21188;-70
2022/01/04 13:23:18;;;;;;;45.13;23.83;;;;;;;6.86;100.00;97013.66;8466267;28;20039;-70
2022/01/04 13:27:25;;;;;;;30.25;16.60;;;;;;;6.87;100.00;97014.47;8417098;28;20063;-70
2022/01/04 13:31:27;;;;;;;35.70;19.13;;;;;;;6.86;100.00;97008.31;8465089;28;20059;-71
2022/01/04 13:35:29;;;;;;;44.08;23.00;;;;;;;6.83;100.00;97008.97;8448853;28;20427;-70
2022/01/04 13:39:30;;;;;;;36.05;19.48;;;;;;;6.84;100.00;96994.44;8483162;27;20409;-70
2022/01/04 13:43:35;;;;;;;47.70;22.15;;;;;;;6.85;100.00;96984.47;8466227;27;20046;-71
2022/01/04 13:47:38;;;;;;;39.55;19.85;;;;;;;6.86;100.00;96986.84;8466022;27;20043;-72
2022/01/04 13:51:40;;;;;;;31.75;16.58;;;;;;;6.84;100.00;96989.06;8495002;27;20351;-71
2022/01/04 13:55:48;;;;;;;48.50;24.67;;;;;;;6.80;100.00;96977.44;8479718;27;20087;-71
2022/01/04 13:59:49;;;;;;;75.80;33.57;;;;;;;6.84;100.00;96975.66;8495828;27;20039;-70
2022/01/04 14:03:55;;;;;;;58.15;29.30;;;;;;;6.85;100.00;96969.16;8493283;27;20498;-71
2022/01/04 14:07:59;;;;;;;67.35;33.17;;;;;;;6.86;100.00;96949.28;8482533;27;20058;-71
2022/01/04 14:12:00;;;;;;;50.03;24.92;;;;;;;6.83;100.00;96939.19;8462207;27;20432;-71
2022/01/04 14:16:08;;;;;;;52.03;27.02;;;;;;;6.85;100.00;96947.72;8476780;27;20165;-70
2022/01/04 14:20:12;;;;;;;46.70;23.60;;;;;;;6.86;100.00;96937.75;8466856;28;20047;-72
2022/01/04 14:25:14;;;;;;;50.58;23.65;;;;;;;6.85;100.00;96920.09;8437418;27;20491;-70
2022/01/04 14:29:33;;;;;;;45.08;21.90;;;;;;;6.84;100.00;96924.69;8219337;28;20058;-71
2022/01/04 14:33:33;;;;;;;48.42;27.50;;;;;;;6.82;100.00;96916.16;8216034;28;20055;-71
2022/01/04 14:37:36;;;;;;;42.17;20.77;;;;;;;6.80;100.00;96918.44;8216802;28;20043;-70
2022/01/04 14:41:37;;;;;;;49.97;24.45;;;;;;;6.79;100.00;96922.22;8214732;28;20039;-70
2022/01/04 14:45:38;;;;;;;37.22;20.13;;;;;;;6.78;100.00;96915.28;8210876;28;20055;-71
2022/01/04 14:49:40;;;;;;;62.88;26.45;;;;;;;6.78;100.00;96904.56;8205305;28;20050;-71
2022/01/04 14:53:40;;;;;;;89.70;34.38;;;;;;;6.81;100.00;96909.25;8210867;28;20158;-71
2022/01/04 14:57:41;;;;;;;88.75;34.95;;;;;;;6.81;100.00;96906.59;8202483;28;20046;-71
2022/01/04 15:01:42;;;;;;;69.25;32.90;;;;;;;6.82;100.00;96889.34;8209591;28;20051;-70
2022/01/04 15:05:43;;;;;;;71.25;33.33;;;;;;;6.82;100.00;96878.63;8426232;27;20489;-71
2022/01/04 15:09:44;;;;;;;57.83;27.42;;;;;;;6.85;100.00;96883.31;8493717;27;20047;-71
2022/01/04 15:13:45;;;;;;;59.10;30.73;;;;;;;6.86;100.00;96882.19;8477241;27;20086;-71
2022/01/04 15:17:46;;;;;;;41.58;22.27;;;;;;;6.86;100.00;96876.84;8479769;27;20035;-73
2022/01/04 15:21:47;;;;;;;44.67;23.88;;;;;;;6.85;100.00;96877.94;8478659;27;20478;-71
2022/01/04 15:25:50;;;;;;;45.75;25.02;;;;;;;6.84;100.00;96881.75;8466433;27;20074;-72
2022/01/04 15:29:53;;;;;;;40.78;21.08;;;;;;;6.87;100.00;96877.63;8471201;27;20043;-71
2022/01/04 15:33:54;;;;;;;39.15;20.30;;;;;;;6.86;100.00;96874.16;8480569;27;20058;-71
2022/01/04 15:37:55;;;;;;;40.88;22.35;;;;;;;6.91;100.00;96865.09;8475632;27;20043;-71
2022/01/04 15:41:56;;;;;;;40.25;21.35;;;;;;;6.95;100.00;96861.38;8474432;27;20070;-72
2022/01/04 15:45:58;;;;;;;82.75;36.15;;;;;;;6.99;100.00;96856.91;8471856;27;20445;-69
2022/01/04 15:49:59;;;;;;;132.88;49.10;;;;;;;6.99;100.00;96862.25;8438676;27;20182;-72
2022/01/04 15:54:00;;;;;;;96.68;34.38;;;;;;;7.04;100.00;96858.56;8478001;27;20051;-70
2022/01/04 15:58:01;;;;;;;76.50;37.00;;;;;;;7.08;100.00;96860.25;8436531;27;20069;-71
2022/01/04 16:02:03;;;;;;;70.82;28.63;;;;;;;7.09;100.00;96856.41;8472479;27;20052;-71
2022/01/04 16:06:04;;;;;;;71.47;28.35;;;;;;;7.13;100.00;96851.94;8473211;27;20075;-71
2022/01/04 16:10:06;;;;;;;45.47;21.80;;;;;;;7.13;100.00;96857.31;8467147;27;20402;-70
2022/01/04 16:14:07;;;;;;;46.80;19.35;;;;;;;7.15;100.00;96860.44;8473033;27;20074;-71
2022/01/04 16:22:35;;;;;;;37.40;20.75;;;;;;;7.24;100.00;96862.22;8409529;28;20040;-71
2022/01/04 16:26:42;;;;;;;34.13;18.27;;;;;;;7.26;100.00;96859.94;8408472;28;20056;-70
2022/01/04 16:30:43;;;;;;;32.75;16.73;;;;;;;7.27;100.00;96856.94;8403595;28;20040;-72
2022/01/04 16:34:44;;;;;;;33.20;17.35;;;;;;;7.29;100.00;96848.53;8404090;28;20041;-73
2022/01/04 16:38:45;;;;;;;33.38;17.85;;;;;;;7.26;100.00;96838.47;8411679;28;20058;-70
2022/01/04 16:42:45;;;;;;;34.50;17.55;;;;;;;7.27;100.00;96837.34;8410433;28;20626;-69
2022/01/04 16:46:46;;;;;;;34.30;17.92;;;;;;;7.28;100.00;96836.22;8403626;28;20060;-70
2022/01/04 16:50:47;;;;;;;39.30;20.38;;;;;;;7.33;100.00;96834.09;8403956;28;20048;-71
2022/01/04 16:54:48;;;;;;;33.90;17.13;;;;;;;7.33;100.00;96822.56;8406771;28;20052;-69
2022/01/04 16:58:50;;;;;;;36.50;20.08;;;;;;;7.38;100.00;96825.00;8436346;28;20043;-69
2022/01/04 17:02:51;;;;;;;39.92;20.15;;;;;;;7.38;100.00;96825.78;8475548;28;20062;-68
2022/01/04 17:06:53;;;;;;;44.72;21.42;;;;;;;7.43;100.00;96822.06;8485439;27;20035;-69
2022/01/04 17:11:04;;;;;;;43.28;20.48;;;;;;;7.44;100.00;96834.38;8470998;28;20060;-69
2022/01/04 17:19:24;;;;;;;42.00;19.40;;;;;;;7.49;100.00;96836.81;8461857;28;20047;-69
2022/01/04 17:23:25;;;;;;;43.15;19.08;;;;;;;7.48;100.00;96829.88;8470875;28;20071;-69
2022/01/04 17:27:26;;;;;;;42.45;19.48;;;;;;;7.49;100.00;96831.44;8481335;28;20077;-69
2022/01/04 17:31:27;;;;;;;39.88;19.63;;;;;;;7.55;100.00;96838.13;8480343;28;20051;-68
2022/01/04 17:35:30;;;;;;;27.75;13.90;;;;;;;7.65;100.00;96843.00;8443289;28;20043;-71
2022/01/04 17:39:30;;;;;;;29.20;14.18;;;;;;;7.77;100.00;96859.06;8483581;28;20131;-68
2022/01/04 17:43:32;;;;;;;36.75;15.27;;;;;;;7.82;100.00;96876.84;8476939;28;20186;-68
2022/01/04 17:47:33;;;;;;;32.17;16.52;;;;;;;7.98;100.00;96883.78;8475549;28;20052;-68
2022/01/04 17:51:35;;;;;;;32.83;18.27;;;;;;;7.89;100.00;96885.84;8474721;28;20044;-69
2022/01/04 17:55:36;;;;;;;32.42;18.67;;;;;;;7.85;100.00;96893.03;8421180;28;20518;-68
2022/01/04 17:59:41;;;;;;;40.30;20.63;;;;;;;7.76;100.00;96900.47;8443517;28;20433;-69
2022/01/04 18:03:42;;;;;;;44.97;23.25;;;;;;;7.73;100.00;96903.84;8471291;28;20050;-69
2022/01/04 18:07:43;;;;;;;36.67;19.35;;;;;;;7.68;100.00;96919.44;8470184;28;20040;-69
2022/01/04 18:11:43;;;;;;;31.92;17.55;;;;;;;7.56;100.00;96928.34;8460423;28;20051;-69
2022/01/04 18:15:45;;;;;;;26.88;12.68;;;;;;;7.49;100.00;96944.25;8467603;28;20060;-69
2022/01/04 18:19:46;;;;;;;23.27;12.43;;;;;;;7.36;100.00;96956.13;8467671;28;20044;-68
2022/01/04 18:23:47;;;;;;;23.40;11.88;;;;;;;7.21;100.00;96969.13;8469603;27;20043;-69
2022/01/04 18:27:52;;;;;;;20.58;10.75;;;;;;;7.08;100.00;96967.59;8492250;27;20494;-70
2022/01/04 18:31:53;;;;;;;20.77;11.98;;;;;;;7.06;100.00;96980.56;8482282;27;20138;-69
2022/01/04 18:35:54;;;;;;;19.30;10.05;;;;;;;7.03;100.00;97000.00;8483577;27;20054;-69
2022/01/04 18:39:55;;;;;;;18.08;9.63;;;;;;;6.96;100.00;97002.50;8488613;27;20499;-69
2022/01/04 18:43:58;;;;;;;17.48;9.35;;;;;;;6.92;100.00;97012.34;8432200;28;20062;-69
2022/01/04 18:48:00;;;;;;;15.95;8.60;;;;;;;6.87;100.00;97014.47;8482909;27;20584;-69
2022/01/04 18:52:02;;;;;;;15.50;8.80;;;;;;;6.80;100.00;97020.38;8479570;27;20083;-69
2022/01/04 18:56:03;;;;;;;18.23;8.82;;;;;;;6.73;100.00;97014.75;8477521;27;20189;-70
2022/01/04 19:00:09;;;;;;;15.18;8.60;;;;;;;6.74;100.00;97010.97;8408292;28;20047;-69
2022/01/04 19:04:10;;;;;;;14.07;8.13;;;;;;;6.67;100.00;97026.81;8469688;27;20097;-70
2022/01/04 19:08:11;;;;;;;17.05;9.10;;;;;;;6.69;100.00;97033.44;8476148;27;20493;-69
2022/01/04 19:12:12;;;;;;;16.25;8.40;;;;;;;6.71;100.00;97049.22;8460206;27;20062;-70